Time;durP1;ratioP1;P1;durP2;ratioP2;P2;SDS_P1;SDS_P2;PMS_P1;PMS_P2;Temp;Humidity;BMP_temperature;BMP_pressure;BME280_temperature;BME280_humidity;BME280_pressure;Samples;Min_cycle;Max_cycle;Signal;HPM_P1;HPM_P2
2023/08/27 00:01:42;;;;;;;;;;;;;;;16.39;67.33;99337.66;4944044;28;2170;-78
2023/08/27 00:04:34;;;;;;;;;;;;;;;16.35;67.30;99340.16;4941035;28;2416;-79
2023/08/27 00:07:26;;;;;;;;;;;;;;;16.31;67.52;99330.94;4951581;28;2087;-80
2023/08/27 00:10:18;;;;;;;;;;;;;;;16.27;67.66;99329.91;4958795;28;1907;-78
2023/08/27 00:13:10;;;;;;;;;;;;;;;16.35;67.35;99323.84;4941010;28;2202;-80
2023/08/27 00:16:02;;;;;;;;;;;;;;;16.43;67.06;99333.25;4950336;28;2498;-81
2023/08/27 00:18:54;;;;;;;;;;;;;;;16.44;67.07;99331.34;4939578;28;2326;-82
2023/08/27 00:21:46;;;;;;;;;;;;;;;16.32;67.32;99331.72;4940488;28;2190;-80
2023/08/27 00:24:38;;;;;;;;;;;;;;;16.43;67.02;99333.25;4936670;28;2157;-81
2023/08/27 00:27:30;;;;;;;;;;;;;;;16.35;67.50;99340.16;4937101;28;2140;-79
2023/08/27 00:30:22;;;;;;;;;;;;;;;16.38;67.07;99318.91;4935197;28;2442;-80
2023/08/27 00:33:13;;;;;;;;;;;;;;;16.38;67.07;99321.63;4938797;28;2190;-79
2023/08/27 00:36:05;;;;;;;;;;;;;;;16.52;66.58;99317.94;4935638;28;2150;-82
2023/08/27 00:38:57;;;;;;;;;;;;;;;16.42;66.93;99307.19;4934915;28;2256;-78
2023/08/27 00:41:49;;;;;;;;;;;;;;;16.37;67.09;99309.97;4937119;28;2119;-80
2023/08/27 00:44:41;;;;;;;;;;;;;;;16.45;66.83;99305.81;4937012;28;2505;-80
2023/08/27 00:47:33;;;;;;;;;;;;;;;16.38;67.01;99310.75;4943379;28;2182;-80
2023/08/27 00:50:25;;;;;;;;;;;;;;;16.56;66.43;99308.13;4943215;28;2176;-81
2023/08/27 00:53:18;;;;;;;;;;;;;;;16.54;66.43;99317.66;4939308;28;2164;-80
2023/08/27 00:56:09;;;;;;;;;;;;;;;16.46;66.72;99316.38;4936738;28;2435;-81
2023/08/27 00:59:01;;;;;;;;;;;;;;;16.33;67.10;99315.16;4938505;28;2162;-81
2023/08/27 01:01:53;;;;;;;;;;;;;;;16.30;67.20;99307.59;4941721;28;2238;-82
2023/08/27 01:04:45;;;;;;;;;;;;;;;16.30;67.12;99301.34;4946813;28;2134;-82
2023/08/27 01:07:37;;;;;;;;;;;;;;;16.35;67.03;99298.56;4941724;28;2170;-83
2023/08/27 01:10:28;;;;;;;;;;;;;;;16.28;67.29;99298.09;4939600;28;2180;-84
2023/08/27 01:13:20;;;;;;;;;;;;;;;16.39;66.76;99294.19;4942532;28;2382;-85
2023/08/27 01:16:12;;;;;;;;;;;;;;;16.37;66.88;99298.28;4936753;28;2249;-84
2023/08/27 01:19:04;;;;;;;;;;;;;;;16.31;67.16;99295.63;4942293;28;2132;-82
2023/08/27 01:21:56;;;;;;;;;;;;;;;16.29;67.23;99300.50;4935761;28;2164;-84
2023/08/27 01:24:48;;;;;;;;;;;;;;;16.26;67.21;99295.66;4920313;29;2237;-83
2023/08/27 01:27:40;;;;;;;;;;;;;;;16.27;67.20;99293.78;4921354;29;2178;-84
2023/08/27 01:30:32;;;;;;;;;;;;;;;16.27;67.23;99294.59;4922300;29;2531;-84
2023/08/27 01:33:24;;;;;;;;;;;;;;;16.35;66.93;99298.56;4924539;29;2311;-83
2023/08/27 01:36:15;;;;;;;;;;;;;;;16.38;66.78;99289.03;4922582;29;2112;-84
2023/08/27 01:39:08;;;;;;;;;;;;;;;16.35;66.81;99291.25;4922888;29;2216;-81
2023/08/27 01:41:59;;;;;;;;;;;;;;;16.37;66.87;99290.94;4919537;29;2230;-84
2023/08/27 01:44:50;;;;;;;;;;;;;;;16.24;67.16;99289.72;4921267;29;2275;-82
2023/08/27 01:47:42;;;;;;;;;;;;;;;16.32;67.04;99290.97;4919304;29;2290;-84
2023/08/27 01:50:34;;;;;;;;;;;;;;;16.30;67.06;99283.13;4923879;29;2299;-84
2023/08/27 01:53:26;;;;;;;;;;;;;;;16.33;66.81;99282.56;4920403;29;2174;-82
2023/08/27 01:56:18;;;;;;;;;;;;;;;16.29;66.97;99286.13;4924166;29;2235;-84
2023/08/27 01:59:10;;;;;;;;;;;;;;;16.35;66.83;99282.25;4933538;29;2171;-82
2023/08/27 02:02:02;;;;;;;;;;;;;;;16.39;66.61;99285.22;4937609;29;2457;-85
2023/08/27 02:04:53;;;;;;;;;;;;;;;16.28;66.87;99274.47;4936160;29;1148;-83
2023/08/27 02:07:45;;;;;;;;;;;;;;;16.25;66.96;99277.75;4936103;29;1448;-84
2023/08/27 02:10:37;;;;;;;;;;;;;;;16.33;66.74;99279.03;4930146;29;2259;-85
2023/08/27 02:13:29;;;;;;;;;;;;;;;16.29;66.90;99275.25;4919980;29;2124;-87
2023/08/27 02:16:21;;;;;;;;;;;;;;;16.25;67.07;99279.66;4926378;29;2257;-86
2023/08/27 02:19:13;;;;;;;;;;;;;;;16.28;66.73;99279.88;4927576;29;2158;-84
2023/08/27 02:22:05;;;;;;;;;;;;;;;16.31;66.69;99276.59;4921667;29;2127;-83
2023/08/27 02:24:57;;;;;;;;;;;;;;;16.39;66.53;99277.88;4941651;28;2117;-85
2023/08/27 02:27:49;;;;;;;;;;;;;;;16.27;66.83;99272.03;4939714;28;2221;-85
2023/08/27 02:30:41;;;;;;;;;;;;;;;16.29;66.72;99276.06;4940633;28;2207;-81
2023/08/27 02:33:32;;;;;;;;;;;;;;;16.26;66.85;99273.94;4938734;28;2150;-83
2023/08/27 02:36:24;;;;;;;;;;;;;;;16.08;67.38;99270.03;4942123;28;2214;-82
2023/08/27 02:39:16;;;;;;;;;;;;;;;16.32;66.44;99259.22;4939549;28;2214;-82
2023/08/27 02:42:08;;;;;;;;;;;;;;;16.28;66.53;99260.88;4941838;28;2218;-83
2023/08/27 02:45:00;;;;;;;;;;;;;;;16.24;66.72;99269.91;4940786;28;2431;-79
2023/08/27 02:47:52;;;;;;;;;;;;;;;16.30;66.62;99272.28;4941276;28;2411;-82
2023/08/27 02:50:44;;;;;;;;;;;;;;;16.23;66.79;99273.69;4947852;28;2227;-82
2023/08/27 02:53:36;;;;;;;;;;;;;;;16.16;67.01;99279.47;4942789;28;2122;-82
2023/08/27 02:56:28;;;;;;;;;;;;;;;16.34;66.47;99286.88;4945808;28;2171;-81
2023/08/27 02:59:20;;;;;;;;;;;;;;;16.26;66.64;99273.13;4948319;28;2207;-81
2023/08/27 03:02:12;;;;;;;;;;;;;;;16.18;66.91;99290.88;4950903;28;2146;-81
2023/08/27 03:05:04;;;;;;;;;;;;;;;16.17;66.85;99283.81;4940226;28;2423;-81
2023/08/27 03:07:56;;;;;;;;;;;;;;;16.26;66.76;99273.13;4945642;28;2118;-80
2023/08/27 03:10:48;;;;;;;;;;;;;;;16.31;66.44;99267.63;4947405;28;2246;-81
2023/08/27 03:13:39;;;;;;;;;;;;;;;16.23;66.57;99274.50;4941249;28;2474;-83
2023/08/27 03:16:31;;;;;;;;;;;;;;;16.17;66.77;99272.94;4944853;28;2134;-79
2023/08/27 03:19:23;;;;;;;;;;;;;;;16.21;66.61;99279.44;4939911;28;2137;-81
2023/08/27 03:22:15;;;;;;;;;;;;;;;16.16;66.81;99276.75;4950613;29;2163;-82
2023/08/27 03:25:07;;;;;;;;;;;;;;;16.23;66.76;99270.97;4954153;28;1104;-82
2023/08/27 03:27:59;;;;;;;;;;;;;;;16.17;66.88;99259.34;4957274;28;1976;-84
2023/08/27 03:30:51;;;;;;;;;;;;;;;16.31;66.18;99267.63;4958243;28;1965;-86
2023/08/27 03:33:43;;;;;;;;;;;;;;;16.27;66.42;99264.69;4952206;28;1548;-83
2023/08/27 03:36:35;;;;;;;;;;;;;;;16.13;66.81;99266.47;4948155;28;1782;-85
2023/08/27 03:39:27;;;;;;;;;;;;;;;16.24;66.41;99278.84;4952382;28;2041;-84
2023/08/27 03:42:19;;;;;;;;;;;;;;;16.17;66.67;99264.00;4957068;28;1263;-84
2023/08/27 03:45:11;;;;;;;;;;;;;;;16.21;66.52;99254.19;4955085;28;1564;-85
2023/08/27 03:48:03;;;;;;;;;;;;;;;16.20;66.51;99257.97;4951451;29;1252;-83
2023/08/27 03:50:55;;;;;;;;;;;;;;;16.18;66.56;99258.28;4958025;28;1961;-83
2023/08/27 03:53:47;;;;;;;;;;;;;;;16.21;66.38;99255.00;4951565;29;1001;-84
2023/08/27 03:56:39;;;;;;;;;;;;;;;16.22;66.43;99264.75;4957942;28;1503;-84
2023/08/27 03:59:31;;;;;;;;;;;;;;;16.06;66.88;99257.84;4947874;28;2181;-84
2023/08/27 04:02:23;;;;;;;;;;;;;;;16.22;66.35;99261.22;4943323;28;2253;-81
2023/08/27 04:05:15;;;;;;;;;;;;;;;15.49;67.06;99178.03;4939320;28;2110;-83
2023/08/27 04:08:07;;;;;;;;;;;;;;;16.12;66.66;99257.53;4953013;28;2352;-83
2023/08/27 04:10:59;;;;;;;;;;;;;;;16.06;66.84;99260.56;4943951;28;2165;-82
2023/08/27 04:13:51;;;;;;;;;;;;;;;16.18;66.48;99262.88;4945141;28;2234;-83
2023/08/27 04:16:43;;;;;;;;;;;;;;;16.17;66.43;99262.06;4943442;28;2257;-84
2023/08/27 04:19:35;;;;;;;;;;;;;;;16.19;66.41;99269.94;4943063;28;2574;-84
2023/08/27 04:22:27;;;;;;;;;;;;;;;16.11;66.63;99266.75;4942580;28;2344;-84
2023/08/27 04:25:19;;;;;;;;;;;;;;;16.16;66.46;99265.09;4940418;28;2304;-88
2023/08/27 04:28:11;;;;;;;;;;;;;;;16.13;66.52;99263.75;4946975;28;2195;-83
2023/08/27 04:31:03;;;;;;;;;;;;;;;16.19;66.33;99280.81;4941867;28;2182;-86
2023/08/27 04:33:55;;;;;;;;;;;;;;;16.08;66.55;99272.75;4949827;28;2114;-85
2023/08/27 04:36:47;;;;;;;;;;;;;;;16.08;66.66;99280.09;4942938;28;2162;-86
2023/08/27 04:39:39;;;;;;;;;;;;;;;16.18;66.22;99285.44;4946964;28;2312;-86
2023/08/27 04:42:31;;;;;;;;;;;;;;;16.15;66.47;99296.03;4948660;28;2152;-85
2023/08/27 04:45:23;;;;;;;;;;;;;;;16.06;66.64;99288.56;4940385;28;2133;-85
2023/08/27 04:48:15;;;;;;;;;;;;;;;16.12;66.40;99284.69;4952471;29;2409;-86
2023/08/27 04:51:07;;;;;;;;;;;;;;;16.07;66.60;99289.34;4941835;28;2141;-85
2023/08/27 04:53:59;;;;;;;;;;;;;;;16.04;66.59;99292.63;4952252;28;2134;-86
2023/08/27 04:56:51;;;;;;;;;;;;;;;16.19;66.24;99305.25;4954559;28;1511;-85
2023/08/27 04:59:43;;;;;;;;;;;;;;;16.04;66.65;99296.16;4955167;28;2068;-86
2023/08/27 05:02:35;;;;;;;;;;;;;;;15.90;67.08;99306.06;4956782;28;1387;-86
2023/08/27 05:05:27;;;;;;;;;;;;;;;16.01;66.91;99304.06;4939779;28;2162;-86
2023/08/27 05:08:19;;;;;;;;;;;;;;;16.06;66.53;99302.13;4941242;28;2482;-87
2023/08/27 05:11:11;;;;;;;;;;;;;;;15.93;66.94;99297.34;4941341;28;2212;-85
2023/08/27 05:14:03;;;;;;;;;;;;;;;16.08;66.43;99301.81;4947289;28;2193;-86
2023/08/27 05:16:55;;;;;;;;;;;;;;;16.08;66.33;99299.91;4954235;28;1899;-85
2023/08/27 05:19:47;;;;;;;;;;;;;;;16.15;66.08;99301.47;4952774;29;1100;-84
2023/08/27 05:22:39;;;;;;;;;;;;;;;16.00;66.77;99308.69;4954303;28;1363;-85
2023/08/27 05:25:31;;;;;;;;;;;;;;;16.00;66.63;99306.00;4953348;28;974;-83
2023/08/27 05:28:23;;;;;;;;;;;;;;;15.99;66.55;99304.34;4952103;28;2018;-83
2023/08/27 05:31:15;;;;;;;;;;;;;;;15.91;66.86;99299.53;4950841;28;2158;-85
2023/08/27 05:34:07;;;;;;;;;;;;;;;16.00;66.56;99300.56;4939101;28;2450;-82
2023/08/27 05:36:59;;;;;;;;;;;;;;;15.99;66.66;99307.06;4951886;28;2396;-84
2023/08/27 05:39:51;;;;;;;;;;;;;;;16.01;66.53;99306.78;4954154;28;1713;-83
2023/08/27 05:42:42;;;;;;;;;;;;;;;15.97;66.81;99308.44;4954107;28;1670;-83
2023/08/27 05:45:36;;;;;;;;;;;;;;;16.04;66.48;99319.78;4949670;28;3380;-82
2023/08/27 05:48:28;;;;;;;;;;;;;;;16.02;66.46;99311.13;4954308;28;2035;-84
2023/08/27 05:51:20;;;;;;;;;;;;;;;15.95;66.58;99308.75;4942135;28;2134;-85
2023/08/27 05:54:12;;;;;;;;;;;;;;;15.94;66.61;99309.00;4952884;28;1748;-84
2023/08/27 05:57:05;;;;;;;;;;;;;;;15.94;66.59;99311.72;4950915;28;1360;-84
2023/08/27 05:59:57;;;;;;;;;;;;;;;15.90;66.70;99315.00;4950120;29;1830;-84
2023/08/27 06:02:49;;;;;;;;;;;;;;;15.97;66.55;99320.13;4947775;29;3848;-84
2023/08/27 06:05:40;;;;;;;;;;;;;;;15.95;66.59;99319.59;4949844;29;1827;-82
2023/08/27 06:08:32;;;;;;;;;;;;;;;15.81;67.01;99316.72;4948811;28;2694;-84
2023/08/27 06:11:24;;;;;;;;;;;;;;;15.91;66.54;99315.81;4953073;29;1903;-84
2023/08/27 06:14:17;;;;;;;;;;;;;;;15.97;66.45;99324.72;4950349;28;2615;-83
2023/08/27 06:17:08;;;;;;;;;;;;;;;15.93;66.49;99321.78;4956091;28;2075;-83
2023/08/27 06:20:00;;;;;;;;;;;;;;;15.85;66.79;99327.81;4951229;28;1658;-83
2023/08/27 06:22:52;;;;;;;;;;;;;;;15.83;66.87;99317.25;4951733;28;1618;-83
2023/08/27 06:25:44;;;;;;;;;;;;;;;15.92;66.51;99320.16;4953973;28;1547;-84
2023/08/27 06:28:36;;;;;;;;;;;;;;;15.83;66.94;99322.69;4955211;28;1972;-82
2023/08/27 06:31:28;;;;;;;;;;;;;;;15.90;66.66;99314.22;4950531;28;2012;-81
2023/08/27 06:34:20;;;;;;;;;;;;;;;15.85;66.73;99322.38;4951239;28;2565;-81
2023/08/27 06:37:12;;;;;;;;;;;;;;;15.91;66.57;99313.09;4947511;28;2166;-82
2023/08/27 06:40:04;;;;;;;;;;;;;;;15.84;66.76;99313.44;4953822;28;2091;-81
2023/08/27 06:42:57;;;;;;;;;;;;;;;15.86;66.74;99316.69;4956905;29;1963;-82
2023/08/27 06:45:48;;;;;;;;;;;;;;;15.84;66.90;99316.16;4952467;28;2079;-82
2023/08/27 06:48:39;;;;;;;;;;;;;;;15.78;66.92;99317.28;4957226;28;1715;-82
2023/08/27 06:51:31;;;;;;;;;;;;;;;15.72;67.23;99317.63;4954068;28;2107;-82
2023/08/27 06:54:23;;;;;;;;;;;;;;;15.79;66.87;99323.53;4956071;29;978;-80
2023/08/27 06:57:15;;;;;;;;;;;;;;;15.81;67.01;99324.06;4955372;28;1965;-81
2023/08/27 07:00:07;;;;;;;;;;;;;;;15.72;67.17;99317.63;4948969;28;2106;-83
2023/08/27 07:02:59;;;;;;;;;;;;;;;15.78;66.98;99327.34;4944626;28;2118;-81
2023/08/27 07:05:51;;;;;;;;;;;;;;;15.83;66.68;99332.75;4945645;28;2407;-80
2023/08/27 07:08:43;;;;;;;;;;;;;;;15.70;67.17;99320.59;4945149;28;2258;-82
2023/08/27 07:11:35;;;;;;;;;;;;;;;15.67;67.31;99307.56;4942070;28;2225;-82
2023/08/27 07:14:27;;;;;;;;;;;;;;;15.70;67.37;99314.38;4944130;28;2126;-81
2023/08/27 07:17:19;;;;;;;;;;;;;;;15.72;67.10;99304.84;4940111;28;2400;-82
2023/08/27 07:20:11;;;;;;;;;;;;;;;15.80;66.89;99306.16;4940993;28;2442;-82
2023/08/27 07:23:04;;;;;;;;;;;;;;;15.54;67.83;99311.75;4941074;28;2116;-81
2023/08/27 07:25:56;;;;;;;;;;;;;;;15.58;67.71;99312.00;4956361;28;2098;-80
2023/08/27 07:28:48;;;;;;;;;;;;;;;15.45;68.10;99313.44;4955167;28;1917;-82
2023/08/27 07:31:40;;;;;;;;;;;;;;;15.40;68.32;99327.84;4949596;28;2150;-80
2023/08/27 07:34:32;;;;;;;;;;;;;;;15.30;68.79;99325.22;4944525;28;2289;-82
2023/08/27 07:37:24;;;;;;;;;;;;;;;15.46;68.25;99323.19;4943456;28;2213;-82
2023/08/27 07:40:16;;;;;;;;;;;;;;;15.77;67.17;99333.88;4943314;28;2157;-80
2023/08/27 07:43:08;;;;;;;;;;;;;;;15.48;67.72;99337.31;4941143;28;2250;-80
2023/08/27 07:46:01;;;;;;;;;;;;;;;15.28;68.70;99342.84;4940651;28;2151;-80
2023/08/27 07:48:53;;;;;;;;;;;;;;;15.19;69.04;99334.47;4941659;28;2775;-80
2023/08/27 07:51:44;;;;;;;;;;;;;;;15.26;68.89;99331.47;4943032;28;2222;-80
2023/08/27 07:54:36;;;;;;;;;;;;;;;15.16;69.20;99335.03;4941221;28;2280;-82
2023/08/27 07:57:27;;;;;;;;;;;;;;;15.14;69.40;99331.78;4938229;28;2554;-80
2023/08/27 08:00:19;;;;;;;;;;;;;;;15.26;69.09;99331.47;4937287;28;2145;-79
2023/08/27 08:03:11;;;;;;;;;;;;;;;15.15;69.30;99336.16;4943224;28;2191;-80
2023/08/27 08:06:03;;;;;;;;;;;;;;;15.19;69.33;99334.47;4941062;28;2173;-81
2023/08/27 08:08:55;;;;;;;;;;;;;;;15.13;69.36;99341.03;4943130;28;2376;-81
2023/08/27 08:11:47;;;;;;;;;;;;;;;15.11;69.50;99344.00;4956616;29;2243;-79
2023/08/27 08:14:39;;;;;;;;;;;;;;;15.11;69.61;99341.28;4939940;28;2470;-79
2023/08/27 08:17:31;;;;;;;;;;;;;;;15.13;69.55;99341.03;4941150;28;2399;-79
2023/08/27 08:20:23;;;;;;;;;;;;;;;15.13;69.39;99349.16;4956170;28;2462;-78
2023/08/27 08:23:15;;;;;;;;;;;;;;;15.11;69.63;99338.59;4955757;28;1558;-81
2023/08/27 08:26:08;;;;;;;;;;;;;;;15.13;69.61;99341.84;4954331;28;1614;-82
2023/08/27 08:28:59;;;;;;;;;;;;;;;15.12;69.70;99345.66;4956469;28;2157;-80
2023/08/27 08:31:51;;;;;;;;;;;;;;;15.14;69.61;99354.28;4956068;28;1911;-80
2023/08/27 08:34:43;;;;;;;;;;;;;;;15.16;69.58;99359.44;4960681;28;1309;-80
2023/08/27 08:37:35;;;;;;;;;;;;;;;15.24;69.35;99355.34;4956200;29;950;-78
2023/08/27 08:40:27;;;;;;;;;;;;;;;15.26;69.25;99359.38;4948151;28;2051;-80
2023/08/27 08:43:19;;;;;;;;;;;;;;;15.27;69.14;99360.22;4949873;29;2230;-82
2023/08/27 08:46:11;;;;;;;;;;;;;;;15.22;69.39;99361.03;4958056;28;1578;-79
2023/08/27 08:49:03;;;;;;;;;;;;;;;15.21;69.46;99360.25;4958283;28;2578;-81
2023/08/27 08:51:55;;;;;;;;;;;;;;;15.31;69.06;99350.44;4960320;28;1907;-81
2023/08/27 08:54:48;;;;;;;;;;;;;;;15.31;69.08;99355.84;4955204;28;2253;-82
2023/08/27 08:57:40;;;;;;;;;;;;;;;15.30;68.88;99360.47;4952796;28;2444;-81
2023/08/27 09:00:32;;;;;;;;;;;;;;;15.49;68.55;99365.25;4956932;28;2857;-81
2023/08/27 09:03:24;;;;;;;;;;;;;;;15.48;68.55;99360.91;4956915;28;1760;-79
2023/08/27 09:06:16;;;;;;;;;;;;;;;15.48;68.45;99347.34;4950687;28;2184;-79
2023/08/27 09:09:08;;;;;;;;;;;;;;;15.51;68.44;99360.34;4958528;28;2011;-80
2023/08/27 09:12:00;;;;;;;;;;;;;;;15.55;68.26;99361.41;4955383;28;1962;-80
2023/08/27 09:14:51;;;;;;;;;;;;;;;15.63;67.93;99364.31;4952931;28;1607;-78
2023/08/27 09:17:43;;;;;;;;;;;;;;;15.62;67.89;99359.19;4957191;28;1997;-82
2023/08/27 09:20:35;;;;;;;;;;;;;;;15.72;67.66;99351.00;4952402;28;1602;-81
2023/08/27 09:23:27;;;;;;;;;;;;;;;15.74;67.40;99361.59;4954439;28;1439;-79
2023/08/27 09:26:18;;;;;;;;;;;;;;;15.64;67.84;99357.00;4958624;28;1949;-79
2023/08/27 09:29:10;;;;;;;;;;;;;;;15.64;67.82;99354.28;4948801;28;1562;-79
2023/08/27 09:32:01;;;;;;;;;;;;;;;15.51;68.40;99353.00;4954316;28;2122;-78
2023/08/27 09:34:53;;;;;;;;;;;;;;;15.49;68.49;99360.63;4959479;28;2835;-80
2023/08/27 09:37:45;;;;;;;;;;;;;;;15.54;68.28;99360.59;4955058;28;2131;-80
2023/08/27 09:40:37;;;;;;;;;;;;;;;15.41;68.87;99374.75;4958204;28;2056;-78
2023/08/27 09:43:29;;;;;;;;;;;;;;;15.37;68.98;99374.53;4955210;28;1950;-79
2023/08/27 09:46:21;;;;;;;;;;;;;;;15.36;69.26;99380.25;4954117;28;2043;-81
2023/08/27 09:49:13;;;;;;;;;;;;;;;15.37;69.26;99376.44;4954640;28;1900;-78
2023/08/27 09:52:04;;;;;;;;;;;;;;;15.37;69.23;99384.56;4952047;29;1902;-79
2023/08/27 09:54:56;;;;;;;;;;;;;;;15.37;69.20;99390.78;4955063;28;2289;-79
2023/08/27 09:57:48;;;;;;;;;;;;;;;15.35;69.43;99382.16;4955270;29;974;-79
2023/08/27 10:00:40;;;;;;;;;;;;;;;15.41;69.29;99385.63;4953549;28;2328;-79
2023/08/27 10:03:32;;;;;;;;;;;;;;;15.39;69.27;99374.25;4960570;28;1594;-78
2023/08/27 10:06:24;;;;;;;;;;;;;;;15.40;69.33;99384.81;4954757;29;1028;-79
2023/08/27 10:09:16;;;;;;;;;;;;;;;15.40;69.40;99386.72;4955161;28;1874;-80
2023/08/27 10:12:09;;;;;;;;;;;;;;;15.41;69.46;99382.91;4955235;28;1953;-77
2023/08/27 10:15:01;;;;;;;;;;;;;;;15.41;69.61;99380.19;4960005;28;1673;-79
2023/08/27 10:17:54;;;;;;;;;;;;;;;15.41;69.61;99383.75;4958794;28;1360;-78
2023/08/27 10:20:46;;;;;;;;;;;;;;;15.42;69.60;99371.78;4958131;28;2168;-79
2023/08/27 10:23:38;;;;;;;;;;;;;;;15.47;69.45;99389.94;4959271;28;1496;-80
2023/08/27 10:26:30;;;;;;;;;;;;;;;15.47;69.50;99367.41;4957542;28;1490;-79
2023/08/27 10:29:22;;;;;;;;;;;;;;;15.47;69.53;99370.13;4947451;28;2175;-77
2023/08/27 10:32:14;;;;;;;;;;;;;;;15.50;69.40;99373.13;4943743;28;2326;-80
2023/08/27 10:35:06;;;;;;;;;;;;;;;15.51;69.32;99374.72;4945040;28;2226;-77
2023/08/27 10:37:58;;;;;;;;;;;;;;;15.51;69.46;99369.28;4942951;28;2482;-78
2023/08/27 10:40:50;;;;;;;;;;;;;;;15.54;69.39;99362.50;4940050;28;2192;-77
2023/08/27 10:43:42;;;;;;;;;;;;;;;15.55;69.06;99378.47;4946221;28;2160;-78
2023/08/27 10:46:34;;;;;;;;;;;;;;;15.55;69.46;99367.63;4941408;28;2475;-79
2023/08/27 10:49:26;;;;;;;;;;;;;;;15.54;69.49;99373.34;4943796;28;2446;-79
2023/08/27 10:52:19;;;;;;;;;;;;;;;15.53;69.52;99377.97;4942740;28;2174;-80
2023/08/27 10:55:11;;;;;;;;;;;;;;;15.54;69.61;99379.59;4944187;28;2167;-80
2023/08/27 10:58:03;;;;;;;;;;;;;;;15.57;69.47;99375.50;4943343;28;2161;-79
2023/08/27 11:00:55;;;;;;;;;;;;;;;15.56;69.60;99373.88;4942885;28;2431;-79
2023/08/27 11:03:47;;;;;;;;;;;;;;;15.57;69.65;99380.94;4944662;28;2145;-79
2023/08/27 11:06:40;;;;;;;;;;;;;;;15.54;69.83;99379.59;4940998;28;2494;-80
2023/08/27 11:09:31;;;;;;;;;;;;;;;15.60;69.54;99383.88;4939895;28;2150;-79
2023/08/27 11:12:24;;;;;;;;;;;;;;;15.59;69.68;99381.47;4944094;28;2479;-81
2023/08/27 11:15:15;;;;;;;;;;;;;;;15.59;69.67;99376.03;4940050;28;2146;-80
2023/08/27 11:18:07;;;;;;;;;;;;;;;15.60;69.78;99383.09;4941972;28;2154;-80
2023/08/27 11:20:59;;;;;;;;;;;;;;;15.57;69.90;99375.50;4955208;29;2122;-81
2023/08/27 11:23:51;;;;;;;;;;;;;;;15.61;69.79;99380.06;4958072;28;1500;-80
2023/08/27 11:26:43;;;;;;;;;;;;;;;15.60;69.89;99377.66;4946623;28;2129;-79
2023/08/27 11:29:35;;;;;;;;;;;;;;;15.58;69.92;99383.34;4935356;28;2427;-80
2023/08/27 11:32:27;;;;;;;;;;;;;;;15.62;69.93;99378.19;4943419;28;2202;-79
2023/08/27 11:35:22;;;;;;;;;;;;;;;15.61;70.06;99387.41;4939843;28;2435;-79
2023/08/27 11:38:14;;;;;;;;;;;;;;;15.61;70.09;99387.41;4939033;28;2435;-79
2023/08/27 11:41:06;;;;;;;;;;;;;;;15.60;70.04;99394.75;4941344;28;2237;-80
2023/08/27 11:43:59;;;;;;;;;;;;;;;15.59;70.27;99395.03;4939669;28;2325;-79
2023/08/27 11:46:51;;;;;;;;;;;;;;;15.59;70.24;99395.03;4940890;28;2155;-80
2023/08/27 11:49:42;;;;;;;;;;;;;;;15.60;70.21;99394.75;4940087;28;2242;-76
2023/08/27 11:52:33;;;;;;;;;;;;;;;15.59;70.42;99387.72;4940496;28;2195;-78
2023/08/27 11:55:25;;;;;;;;;;;;;;;15.62;70.31;99389.06;4944165;28;2368;-78
2023/08/27 11:58:18;;;;;;;;;;;;;;;15.60;70.50;99394.75;4941698;28;2130;-78
2023/08/27 12:01:09;;;;;;;;;;;;;;;15.61;70.46;99385.50;4944145;28;2114;-82
2023/08/27 12:04:01;;;;;;;;;;;;;;;15.63;70.53;99396.91;4949417;28;2182;-77
2023/08/27 12:06:54;;;;;;;;;;;;;;;15.62;70.67;99394.47;4940539;28;2175;-76
2023/08/27 12:09:46;;;;;;;;;;;;;;;15.64;70.75;99400.41;4946030;28;2200;-79
2023/08/27 12:12:38;;;;;;;;;;;;;;;15.62;70.82;99397.19;4949875;28;2221;-80
2023/08/27 12:15:30;;;;;;;;;;;;;;;15.62;70.86;99398.00;4954565;28;2136;-79
2023/08/27 12:18:22;;;;;;;;;;;;;;;15.63;70.86;99399.59;4953767;28;2079;-77
2023/08/27 12:21:14;;;;;;;;;;;;;;;15.63;71.01;99407.75;4954189;28;1699;-79
2023/08/27 12:24:06;;;;;;;;;;;;;;;15.63;71.03;99402.31;4955551;28;1945;-79
2023/08/27 12:26:58;;;;;;;;;;;;;;;15.64;71.10;99422.13;4956573;28;1491;-77
2023/08/27 12:29:50;;;;;;;;;;;;;;;15.66;71.08;99428.09;4955873;28;1587;-79
2023/08/27 12:32:42;;;;;;;;;;;;;;;15.66;71.24;99423.47;4955785;29;1907;-77
2023/08/27 12:35:34;;;;;;;;;;;;;;;15.66;71.21;99404.47;4954543;28;1946;-78
2023/08/27 12:38:26;;;;;;;;;;;;;;;15.67;71.31;99421.56;4952290;28;1610;-80
2023/08/27 12:41:18;;;;;;;;;;;;;;;15.67;71.44;99422.41;4954325;28;1454;-78
2023/08/27 12:44:09;;;;;;;;;;;;;;;15.68;71.39;99415.09;4957263;28;1612;-85
2023/08/27 12:47:01;;;;;;;;;;;;;;;15.83;72.25;99422.31;4958385;28;1363;-79
2023/08/27 12:49:53;;;;;;;;;;;;;;;15.76;72.29;99429.97;4957199;28;2920;-80
2023/08/27 12:52:45;;;;;;;;;;;;;;;15.74;72.39;99424.03;4947103;28;4971;-79
2023/08/27 12:55:36;;;;;;;;;;;;;;;15.74;72.59;99430.25;4958188;28;4321;-80
2023/08/27 12:58:28;;;;;;;;;;;;;;;15.73;72.68;99417.75;4951290;28;4194;-77
2023/08/27 13:01:20;;;;;;;;;;;;;;;15.74;72.69;99422.13;4954790;28;1585;-79
2023/08/27 13:04:12;;;;;;;;;;;;;;;15.76;72.63;99425.34;4946950;28;5409;-79
2023/08/27 13:07:04;;;;;;;;;;;;;;;15.77;72.72;99418.03;4951569;28;5266;-78
2023/08/27 13:09:56;;;;;;;;;;;;;;;15.77;72.73;99429.69;4955809;28;1837;-79
2023/08/27 13:12:48;;;;;;;;;;;;;;;15.78;72.76;99434.00;4951219;28;5082;-80
2023/08/27 13:15:40;;;;;;;;;;;;;;;15.78;72.78;99435.94;4957689;28;2008;-79
2023/08/27 13:18:32;;;;;;;;;;;;;;;15.79;72.81;99443.78;4954113;28;1534;-80
2023/08/27 13:21:24;;;;;;;;;;;;;;;15.78;72.79;99444.88;4954142;28;1360;-79
2023/08/27 13:24:17;;;;;;;;;;;;;;;15.80;72.69;99445.41;4955556;28;3182;-80
2023/08/27 13:27:08;;;;;;;;;;;;;;;15.81;72.66;99457.09;4957302;28;2087;-81
2023/08/27 13:29:59;;;;;;;;;;;;;;;15.81;72.73;99460.59;4954622;28;1531;-78
2023/08/27 13:32:51;;;;;;;;;;;;;;;15.81;72.67;99466.03;4958196;28;1967;-88
2023/08/27 13:35:43;;;;;;;;;;;;;;;15.82;72.71;99480.41;4953560;28;1465;-89
2023/08/27 13:38:35;;;;;;;;;;;;;;;15.82;72.62;99480.41;4957097;28;1569;-94
2023/08/27 13:41:27;;;;;;;;;;;;;;;15.83;72.56;99479.34;4958340;28;1488;-87
2023/08/27 13:44:19;;;;;;;;;;;;;;;15.84;72.69;99481.75;4964584;28;1949;-93
2023/08/27 13:47:11;;;;;;;;;;;;;;;15.83;72.58;99482.84;4958713;28;1607;-92
2023/08/27 13:50:03;;;;;;;;;;;;;;;15.84;72.55;99478.25;4961790;28;1182;-92
2023/08/27 13:52:55;;;;;;;;;;;;;;;15.84;72.63;99487.19;4961807;29;1979;-91
2023/08/27 13:55:47;;;;;;;;;;;;;;;15.86;72.58;99484.22;4961801;28;1476;-90
2023/08/27 13:58:41;;;;;;;;;;;;;;;15.85;72.55;99488.00;4964239;28;1631;-92
2023/08/27 14:01:32;;;;;;;;;;;;;;;15.86;72.53;99481.50;4964637;29;1084;-91
2023/08/27 14:04:24;;;;;;;;;;;;;;;15.86;72.50;99478.78;4959688;29;1349;-90
2023/08/27 14:07:16;;;;;;;;;;;;;;;15.86;72.51;99473.34;4961213;28;1924;-90
2023/08/27 14:10:08;;;;;;;;;;;;;;;15.85;72.40;99471.69;4954242;29;1405;-93
2023/08/27 14:13:00;;;;;;;;;;;;;;;15.87;72.46;99477.69;4957990;28;1903;-90
2023/08/27 14:15:54;;;;;;;;;;;;;;;15.86;72.51;99481.50;4952470;28;1905;-89
2023/08/27 14:18:45;;;;;;;;;;;;;;;15.87;72.49;99485.81;4951549;28;1406;-85
2023/08/27 14:21:37;;;;;;;;;;;;;;;15.86;72.55;99487.72;4951967;28;1937;-85
2023/08/27 14:24:28;;;;;;;;;;;;;;;15.87;72.68;99478.47;4957903;28;1870;-87
2023/08/27 14:27:20;;;;;;;;;;;;;;;15.86;72.52;99476.06;4956300;28;2018;-84
2023/08/27 14:30:12;;;;;;;;;;;;;;;15.87;72.52;99474.97;4953894;28;1768;-85
2023/08/27 14:33:03;;;;;;;;;;;;;;;15.87;72.53;99483.09;4960176;28;2072;-86
2023/08/27 14:35:55;;;;;;;;;;;;;;;15.88;72.58;99479.28;4953674;29;1283;-83
2023/08/27 14:38:47;;;;;;;;;;;;;;;15.87;72.45;99477.69;4955699;28;1519;-84
2023/08/27 14:41:39;;;;;;;;;;;;;;;15.87;72.55;99486.63;4952986;28;1541;-78
2023/08/27 14:44:32;;;;;;;;;;;;;;;15.87;72.48;99494.78;4960277;28;2053;-81
2023/08/27 14:47:28;;;;;;;;;;;;;;;15.89;72.47;99497.22;4954694;28;1467;-81
2023/08/27 14:50:20;;;;;;;;;;;;;;;15.88;72.43;99503.72;4953699;28;2069;-81
2023/08/27 14:53:12;;;;;;;;;;;;;;;15.90;72.44;99494.22;4952225;28;1946;-79
2023/08/27 14:56:04;;;;;;;;;;;;;;;15.89;72.43;99484.44;4954974;28;1531;-80
2023/08/27 14:58:57;;;;;;;;;;;;;;;15.89;72.42;99503.47;4949169;28;4484;-80
2023/08/27 15:01:48;;;;;;;;;;;;;;;15.89;72.43;99506.16;4952443;28;2978;-82
2023/08/27 15:04:40;;;;;;;;;;;;;;;15.90;72.48;99512.41;4950016;28;5475;-81
2023/08/27 15:07:32;;;;;;;;;;;;;;;15.90;72.34;99515.13;4955712;28;5444;-81